createdAt,value
2019-02-21T00:00:24.629Z,95.6
2019-02-21T00:01:14.678Z,95.5
2019-02-21T00:02:14.942Z,95.5
2019-02-21T00:03:15.205Z,95.5
2019-02-21T00:04:14.468Z,95.5
2019-02-21T00:05:14.731Z,95.5
2019-02-21T00:06:15.000Z,95.5
2019-02-21T00:07:15.263Z,95.6
2019-02-21T00:08:14.535Z,95.7
2019-02-21T00:09:14.802Z,95.7
2019-02-21T00:10:15.078Z,95.7
2019-02-21T00:11:15.117Z,95.8
2019-02-21T00:12:14.385Z,95.8
2019-02-21T00:13:14.666Z,95.8
2019-02-21T00:14:14.936Z,95.8
2019-02-21T00:15:15.204Z,95.8
2019-02-21T00:16:14.479Z,95.8
2019-02-21T00:17:14.745Z,95.8
2019-02-21T00:18:15.012Z,95.9
2019-02-21T00:19:15.300Z,95.9
2019-02-21T00:20:14.568Z,95.9
2019-02-21T00:21:14.626Z,96.0
2019-02-21T00:22:14.890Z,96.0
2019-02-21T00:23:15.157Z,95.9
2019-02-21T00:24:14.424Z,95.9
2019-02-21T00:25:14.696Z,95.8
2019-02-21T00:26:14.956Z,95.8
2019-02-21T00:27:15.211Z,95.8
2019-02-21T00:28:14.492Z,95.8
2019-02-21T00:29:14.752Z,95.7
2019-02-21T00:30:15.024Z,95.7
2019-02-21T00:31:15.074Z,95.6
2019-02-21T00:32:15.348Z,95.7
2019-02-21T00:33:14.650Z,95.7
2019-02-21T00:34:14.925Z,95.7
2019-02-21T00:35:15.188Z,95.7
2019-02-21T00:36:14.449Z,95.8
2019-02-21T00:37:14.712Z,95.7
2019-02-21T00:38:14.978Z,95.7
2019-02-21T00:39:15.350Z,95.6
2019-02-21T00:40:14.632Z,95.6
2019-02-21T00:41:14.662Z,95.6
2019-02-21T00:42:14.966Z,95.7
2019-02-21T00:43:15.223Z,95.7
2019-02-21T00:44:14.500Z,95.8
2019-02-21T00:45:14.780Z,95.8
2019-02-21T00:46:15.038Z,95.8
2019-02-21T00:47:15.311Z,95.7
2019-02-21T00:48:14.575Z,95.7
2019-02-21T00:49:14.846Z,95.6
2019-02-21T00:50:15.146Z,95.5
2019-02-21T00:51:15.167Z,95.6
2019-02-21T00:52:14.448Z,95.7
2019-02-21T00:53:14.710Z,95.7
2019-02-21T00:54:14.978Z,95.8
2019-02-21T00:55:15.240Z,95.7
2019-02-21T00:56:14.503Z,95.7
2019-02-21T00:57:14.786Z,95.7
2019-02-21T00:58:15.056Z,95.7
2019-02-21T00:59:15.318Z,95.7
2019-02-21T01:00:14.566Z,95.7
2019-02-21T01:01:14.647Z,95.7
2019-02-21T01:02:14.939Z,95.7
2019-02-21T01:03:15.209Z,95.8
2019-02-21T01:04:14.473Z,95.8
2019-02-21T01:05:14.726Z,95.8
2019-02-21T01:06:14.991Z,95.8
2019-02-21T01:07:15.260Z,95.8
2019-02-21T01:08:14.531Z,95.8
2019-02-21T01:09:14.814Z,95.8
2019-02-21T01:10:15.088Z,95.8
2019-02-21T01:11:15.135Z,95.8
2019-02-21T01:12:14.404Z,95.8
2019-02-21T01:13:14.681Z,96.0
2019-02-21T01:14:14.942Z,96.0
2019-02-21T01:15:15.217Z,96.1
2019-02-21T01:16:14.488Z,96.0
2019-02-21T01:17:14.751Z,96.0
2019-02-21T01:18:15.026Z,96.2
2019-02-21T01:19:15.295Z,96.3
2019-02-21T01:20:14.572Z,96.4
2019-02-21T01:21:14.600Z,96.5
2019-02-21T01:22:14.880Z,96.5
2019-02-21T01:23:15.145Z,96.6
2019-02-21T01:24:14.417Z,96.6
2019-02-21T01:25:14.705Z,96.7
2019-02-21T01:26:14.981Z,96.6
2019-02-21T01:27:15.257Z,96.6
2019-02-21T01:28:14.524Z,96.7
2019-02-21T01:29:14.790Z,96.7
2019-02-21T01:30:15.086Z,96.8
2019-02-21T01:31:15.123Z,96.8
2019-02-21T01:32:14.394Z,96.6
2019-02-21T01:33:14.669Z,96.5
2019-02-21T01:34:14.935Z,96.4
2019-02-21T01:35:15.207Z,96.3
2019-02-21T01:36:14.480Z,96.3
2019-02-21T01:37:14.770Z,96.4
2019-02-21T01:38:15.047Z,96.4
2019-02-21T01:39:15.315Z,96.3
2019-02-21T01:40:14.597Z,96.3
2019-02-21T01:41:14.652Z,96.5
2019-02-21T01:42:14.920Z,96.7
2019-02-21T01:43:15.215Z,96.8
2019-02-21T01:44:14.557Z,96.8
2019-02-21T01:45:14.814Z,96.8
2019-02-21T01:46:15.077Z,96.8
2019-02-21T01:47:15.333Z,96.8
2019-02-21T01:48:14.684Z,97.0
2019-02-21T01:49:14.958Z,97.0
2019-02-21T01:50:15.227Z,97.0
2019-02-21T01:51:15.269Z,97.0
2019-02-21T01:52:14.542Z,97.1
2019-02-21T01:53:14.800Z,97.1
2019-02-21T01:54:15.066Z,97.2
2019-02-21T01:55:15.339Z,97.2
2019-02-21T01:56:14.608Z,97.2
2019-02-21T01:57:14.881Z,97.2
2019-02-21T01:58:15.137Z,97.2
2019-02-21T01:59:14.404Z,97.2
2019-02-21T02:00:14.680Z,97.2
2019-02-21T02:01:14.718Z,97.2
2019-02-21T02:02:14.985Z,97.2
2019-02-21T02:03:15.269Z,97.2
2019-02-21T02:04:14.538Z,97.2
2019-02-21T02:05:14.819Z,97.0
2019-02-21T02:06:15.081Z,97.0
2019-02-21T02:07:15.351Z,97.0
2019-02-21T02:08:14.614Z,96.9
2019-02-21T02:09:14.891Z,96.8
2019-02-21T02:10:15.163Z,96.8
2019-02-21T02:11:15.209Z,96.8
2019-02-21T02:12:14.492Z,96.8
2019-02-21T02:13:25.038Z,96.7
2019-02-21T02:14:14.411Z,96.7
2019-02-21T02:15:14.713Z,96.6
2019-02-21T02:16:14.987Z,96.5
2019-02-21T02:17:15.256Z,96.5
2019-02-21T02:18:14.533Z,96.5
2019-02-21T02:19:14.807Z,96.3
2019-02-21T02:20:15.088Z,96.3
2019-02-21T02:21:15.120Z,96.2
2019-02-21T02:22:14.376Z,96.1
2019-02-21T02:23:14.660Z,96.1
2019-02-21T02:24:15.073Z,96.0
2019-02-21T02:25:15.358Z,96.0
2019-02-21T02:26:14.629Z,96.0
2019-02-21T02:27:14.895Z,96.0
2019-02-21T02:28:15.432Z,96.1
2019-02-21T02:29:14.706Z,96.2
2019-02-21T02:30:14.999Z,96.2
2019-02-21T02:31:23.768Z,96.2
2019-02-21T02:32:15.195Z,96.3
2019-02-21T02:33:14.458Z,96.3
2019-02-21T02:34:14.725Z,96.4
2019-02-21T02:35:15.001Z,96.5
2019-02-21T02:36:15.305Z,96.5
2019-02-21T02:37:14.582Z,96.5
2019-02-21T02:38:14.849Z,96.5
2019-02-21T02:39:15.145Z,96.5
2019-02-21T02:40:14.419Z,96.6
2019-02-21T02:41:14.477Z,96.7
2019-02-21T02:42:14.823Z,96.7
2019-02-21T02:43:15.089Z,96.8
2019-02-21T02:44:14.403Z,96.8
2019-02-21T02:45:14.678Z,96.8
2019-02-21T02:46:14.953Z,96.8
2019-02-21T02:47:15.231Z,96.8
2019-02-21T02:48:14.509Z,96.9
2019-02-21T02:49:14.790Z,97.0
2019-02-21T02:50:15.414Z,97.0
2019-02-21T02:51:15.121Z,97.0
2019-02-21T02:52:14.399Z,97.0
2019-02-21T02:53:14.654Z,97.1
2019-02-21T02:54:14.931Z,97.2
2019-02-21T02:55:15.210Z,97.2
2019-02-21T02:56:14.468Z,97.2
2019-02-21T02:57:14.742Z,97.2
2019-02-21T02:58:15.140Z,96.8
2019-02-21T02:59:14.415Z,96.7
2019-02-21T03:00:14.728Z,96.7
2019-02-21T03:01:14.796Z,96.6
2019-02-21T03:02:15.097Z,96.5
2019-02-21T03:03:14.363Z,96.5
2019-02-21T03:04:14.639Z,96.5
2019-02-21T03:05:14.924Z,96.5
2019-02-21T03:06:15.180Z,96.5
2019-02-21T03:07:14.443Z,96.3
2019-02-21T03:08:14.718Z,96.3
2019-02-21T03:09:14.977Z,96.3
2019-02-21T03:10:15.251Z,96.3
2019-02-21T03:11:15.273Z,96.3
2019-02-21T03:12:14.543Z,96.3
2019-02-21T03:13:14.811Z,96.3
2019-02-21T03:14:15.081Z,96.3
2019-02-21T03:15:14.351Z,96.5
2019-02-21T03:16:14.624Z,96.4
2019-02-21T03:17:14.884Z,96.3
2019-02-21T03:18:15.197Z,96.3
2019-02-21T03:19:14.460Z,96.3
2019-02-21T03:20:14.726Z,96.2
2019-02-21T03:21:14.769Z,96.2
2019-02-21T03:22:15.124Z,96.3
2019-02-21T03:23:14.395Z,96.4
2019-02-21T03:24:14.668Z,96.5
2019-02-21T03:25:14.938Z,96.5
2019-02-21T03:26:15.209Z,96.5
2019-02-21T03:27:14.478Z,96.5
2019-02-21T03:28:14.747Z,96.5
2019-02-21T03:29:15.016Z,96.4
2019-02-21T03:30:15.289Z,96.4
2019-02-21T03:31:15.339Z,96.4
2019-02-21T03:32:14.632Z,96.4
2019-02-21T03:33:14.905Z,96.4
2019-02-21T03:34:15.193Z,96.5
2019-02-21T03:35:14.477Z,96.5
2019-02-21T03:36:14.761Z,96.5
2019-02-21T03:37:15.065Z,96.6
2019-02-21T03:38:15.361Z,96.7
2019-02-21T03:39:14.679Z,96.8
2019-02-21T03:40:14.967Z,96.8
2019-02-21T03:41:15.011Z,96.8
2019-02-21T03:42:15.283Z,97.0
2019-02-21T03:43:14.574Z,97.1
2019-02-21T03:44:14.852Z,97.2
2019-02-21T03:45:15.135Z,97.2
2019-02-21T03:46:14.403Z,97.3
2019-02-21T03:47:14.685Z,97.3
2019-02-21T03:48:14.957Z,97.3
2019-02-21T03:49:15.228Z,97.3
2019-02-21T03:50:14.506Z,97.4
2019-02-21T03:51:14.567Z,97.4
2019-02-21T03:52:14.833Z,97.5
2019-02-21T03:53:15.109Z,97.5
2019-02-21T03:54:14.396Z,97.4
2019-02-21T03:55:14.666Z,97.4
2019-02-21T03:56:14.929Z,97.5
2019-02-21T03:57:15.187Z,97.5
2019-02-21T03:58:14.450Z,97.5
2019-02-21T03:59:14.715Z,97.5
2019-02-21T04:00:14.995Z,97.5
2019-02-21T04:01:15.050Z,97.4
2019-02-21T04:02:15.327Z,97.4
2019-02-21T04:03:14.595Z,97.3
2019-02-21T04:04:14.863Z,97.3
2019-02-21T04:05:15.267Z,97.3
2019-02-21T04:06:14.542Z,97.2
2019-02-21T04:07:14.809Z,97.2
2019-02-21T04:08:15.095Z,97.1
2019-02-21T04:09:14.376Z,97.0
2019-02-21T04:10:14.665Z,97.0
2019-02-21T04:11:14.703Z,96.8
2019-02-21T04:12:14.978Z,96.8
2019-02-21T04:13:15.470Z,96.7
2019-02-21T04:14:14.734Z,96.5
2019-02-21T04:15:15.020Z,96.4
2019-02-21T04:16:15.557Z,96.3
2019-02-21T04:17:14.817Z,96.3
2019-02-21T04:18:15.098Z,96.3
2019-02-21T04:19:14.390Z,96.3
2019-02-21T04:20:14.674Z,96.3
2019-02-21T04:21:14.707Z,96.3
2019-02-21T04:22:14.971Z,96.3
2019-02-21T04:23:15.248Z,96.4
2019-02-21T04:24:14.519Z,96.4
2019-02-21T04:25:14.824Z,96.5
2019-02-21T04:26:15.121Z,96.5
2019-02-21T04:27:14.408Z,96.5
2019-02-21T04:28:14.673Z,96.5
2019-02-21T04:29:14.946Z,96.5
2019-02-21T04:30:15.248Z,96.5
2019-02-21T04:31:15.273Z,96.5
2019-02-21T04:32:17.332Z,96.5
2019-02-21T04:33:14.641Z,96.7
2019-02-21T04:34:14.918Z,96.8
2019-02-21T04:35:15.199Z,96.8
2019-02-21T04:36:14.494Z,96.8
2019-02-21T04:37:14.772Z,96.8
2019-02-21T04:38:15.039Z,96.8
2019-02-21T04:39:15.301Z,96.9
2019-02-21T04:40:14.578Z,97.0
2019-02-21T04:41:14.628Z,97.1
2019-02-21T04:42:14.895Z,97.2
2019-02-21T04:43:15.161Z,97.3
2019-02-21T04:44:14.472Z,97.3
2019-02-21T04:45:14.752Z,97.3
2019-02-21T04:46:15.026Z,97.3
2019-02-21T04:47:15.318Z,97.2
2019-02-21T04:48:14.600Z,97.2
2019-02-21T04:49:14.861Z,97.2
2019-02-21T04:50:15.138Z,97.2
2019-02-21T04:51:15.252Z,97.2
2019-02-21T04:52:14.517Z,97.2
2019-02-21T04:53:14.793Z,97.2
2019-02-21T04:54:15.073Z,97.2
2019-02-21T04:55:15.337Z,97.2
2019-02-21T04:56:14.659Z,97.1
2019-02-21T04:57:14.955Z,97.2
2019-02-21T04:58:15.274Z,97.1
2019-02-21T04:59:14.561Z,97.0
2019-02-21T05:00:14.875Z,96.8
2019-02-21T05:01:14.905Z,96.8
2019-02-21T05:02:15.231Z,96.8
2019-02-21T05:03:14.536Z,96.8
2019-02-21T05:04:14.797Z,96.8
2019-02-21T05:05:15.083Z,96.8
2019-02-21T05:06:14.358Z,96.8
2019-02-21T05:07:14.615Z,96.8
2019-02-21T05:08:14.873Z,96.8
2019-02-21T05:09:15.145Z,96.8
2019-02-21T05:10:14.497Z,97.0
2019-02-21T05:11:14.459Z,97.0
2019-02-21T05:12:14.727Z,97.1
2019-02-21T05:13:15.005Z,97.1
2019-02-21T05:14:15.275Z,97.2
2019-02-21T05:15:14.545Z,97.2
2019-02-21T05:16:14.862Z,97.3
2019-02-21T05:17:15.169Z,97.4
2019-02-21T05:18:14.444Z,97.5
2019-02-21T05:19:14.724Z,97.5
2019-02-21T05:20:15.007Z,97.5
2019-02-21T05:21:15.049Z,97.5
2019-02-21T05:22:15.308Z,97.6
2019-02-21T05:23:14.584Z,97.6
2019-02-21T05:24:14.850Z,97.7
2019-02-21T05:25:15.132Z,97.7
2019-02-21T05:26:14.429Z,97.7
2019-02-21T05:27:14.701Z,97.8
2019-02-21T05:28:14.988Z,97.8
2019-02-21T05:29:15.266Z,97.7
2019-02-21T05:30:14.535Z,97.3
2019-02-21T05:31:14.610Z,97.1
2019-02-21T05:32:14.883Z,97.0
2019-02-21T05:33:15.159Z,96.9
2019-02-21T05:34:14.437Z,97.0
2019-02-21T05:35:14.715Z,96.9
2019-02-21T05:36:14.981Z,96.8
2019-02-21T05:37:15.245Z,96.8
2019-02-21T05:38:14.504Z,96.9
2019-02-21T05:39:14.770Z,96.9
2019-02-21T05:40:15.048Z,96.9
2019-02-21T05:41:15.094Z,97.0
2019-02-21T05:42:14.366Z,97.0
2019-02-21T05:43:14.637Z,97.0
2019-02-21T05:44:14.908Z,97.0
2019-02-21T05:45:15.237Z,97.0
2019-02-21T05:46:14.504Z,97.0
2019-02-21T05:47:14.768Z,97.2
2019-02-21T05:48:15.096Z,97.2
2019-02-21T05:49:14.361Z,97.2
2019-02-21T05:50:14.714Z,97.3
2019-02-21T05:51:14.689Z,97.4
2019-02-21T05:52:15.206Z,97.5
2019-02-21T05:53:14.497Z,97.4
2019-02-21T05:54:14.778Z,97.3
2019-02-21T05:55:15.060Z,97.2
2019-02-21T05:56:15.334Z,97.2
2019-02-21T05:57:14.615Z,97.1
2019-02-21T05:58:14.891Z,97.1
2019-02-21T05:59:15.155Z,97.2
2019-02-21T06:00:14.446Z,97.2
2019-02-21T06:01:14.502Z,97.2
2019-02-21T06:02:14.773Z,97.2
2019-02-21T06:03:15.033Z,97.2
2019-02-21T06:04:15.323Z,97.2
2019-02-21T06:05:14.602Z,97.3
2019-02-21T06:06:17.426Z,97.3
2019-02-21T06:07:14.699Z,97.5
2019-02-21T06:08:14.966Z,97.2
2019-02-21T06:09:15.604Z,97.0
2019-02-21T06:10:14.885Z,97.0
2019-02-21T06:11:14.928Z,96.8
2019-02-21T06:12:15.203Z,96.8
2019-02-21T06:13:14.498Z,96.8
2019-02-21T06:14:14.770Z,96.7
2019-02-21T06:15:18.462Z,96.7
2019-02-21T06:16:14.800Z,96.8
2019-02-21T06:17:15.070Z,96.8
2019-02-21T06:18:17.913Z,96.8
2019-02-21T06:19:15.201Z,96.7
2019-02-21T06:20:14.481Z,96.7
2019-02-21T06:21:14.527Z,96.7
2019-02-21T06:22:14.801Z,96.7
2019-02-21T06:23:15.069Z,96.7
2019-02-21T06:24:15.377Z,96.8
2019-02-21T06:25:14.675Z,96.8
2019-02-21T06:26:14.956Z,96.8
2019-02-21T06:27:15.287Z,96.8
2019-02-21T06:28:14.549Z,96.9
2019-02-21T06:29:14.819Z,96.9
2019-02-21T06:30:15.105Z,97.0
2019-02-21T06:31:15.152Z,97.0
2019-02-21T06:32:14.851Z,97.0
2019-02-21T06:33:15.152Z,97.1
2019-02-21T06:34:14.410Z,97.2
2019-02-21T06:35:14.689Z,97.2
2019-02-21T06:36:14.987Z,97.2
2019-02-21T06:37:15.273Z,97.3
2019-02-21T06:38:14.561Z,97.2
2019-02-21T06:39:14.855Z,97.2
2019-02-21T06:40:15.139Z,97.2
2019-02-21T06:41:15.190Z,97.2
2019-02-21T06:42:14.476Z,97.2
2019-02-21T06:43:14.749Z,97.2
2019-02-21T06:44:15.021Z,97.0
2019-02-21T06:45:18.309Z,96.8
2019-02-21T06:46:14.728Z,96.8
2019-02-21T06:47:15.031Z,96.7
2019-02-21T06:48:15.293Z,96.5
2019-02-21T06:49:14.562Z,96.4
2019-02-21T06:50:14.836Z,96.3
2019-02-21T06:51:14.881Z,96.2
2019-02-21T06:52:15.896Z,96.2
2019-02-21T06:53:15.159Z,96.2
2019-02-21T06:54:14.425Z,96.2
2019-02-21T06:55:14.692Z,96.2
2019-02-21T06:56:14.958Z,96.3
2019-02-21T06:57:15.223Z,96.3
2019-02-21T06:58:14.499Z,96.3
2019-02-21T06:59:14.771Z,96.2
2019-02-21T07:00:15.031Z,96.1
2019-02-21T07:01:29.214Z,96.0
2019-02-21T07:02:14.675Z,96.2
2019-02-21T07:03:16.406Z,96.2
2019-02-21T07:04:14.721Z,96.3
2019-02-21T07:05:14.991Z,96.3
2019-02-21T07:06:15.273Z,96.2
2019-02-21T07:07:14.548Z,96.2
2019-02-21T07:08:14.816Z,96.1
2019-02-21T07:09:15.078Z,96.0
2019-02-21T07:10:14.359Z,96.0
2019-02-21T07:11:14.408Z,96.1
2019-02-21T07:12:14.673Z,96.1
2019-02-21T07:13:26.967Z,96.2
2019-02-21T07:14:15.322Z,96.3
2019-02-21T07:15:15.306Z,96.3
2019-02-21T07:16:14.568Z,96.2
2019-02-21T07:17:14.824Z,96.2
2019-02-21T07:18:15.091Z,96.2
2019-02-21T07:19:14.360Z,96.2
2019-02-21T07:20:14.635Z,96.2
2019-02-21T07:21:14.691Z,96.1
2019-02-21T07:22:22.189Z,95.8
2019-02-21T07:23:14.553Z,95.8
2019-02-21T07:24:14.846Z,95.9
2019-02-21T07:25:15.138Z,96.0
2019-02-21T07:26:14.406Z,95.8
2019-02-21T07:27:14.674Z,95.8
2019-02-21T07:28:16.346Z,95.7
2019-02-21T07:29:14.650Z,95.7
2019-02-21T07:30:22.914Z,95.5
2019-02-21T07:31:14.985Z,95.5
2019-02-21T07:32:15.252Z,95.4
2019-02-21T07:33:14.536Z,95.5
2019-02-21T07:34:14.822Z,95.5
2019-02-21T07:35:15.097Z,95.3
2019-02-21T07:36:14.434Z,95.3
2019-02-21T07:37:19.190Z,95.4
2019-02-21T07:38:17.387Z,95.2
2019-02-21T07:39:20.787Z,95.2
2019-02-21T07:40:20.579Z,95.7
2019-02-21T07:41:18.506Z,95.7
2019-02-21T07:42:15.064Z,95.7
2019-02-21T07:43:15.334Z,95.8
2019-02-21T07:44:14.606Z,95.8
2019-02-21T07:45:15.128Z,95.8
2019-02-21T07:46:14.413Z,95.9
2019-02-21T07:47:14.670Z,95.8
2019-02-21T07:48:14.935Z,95.9
2019-02-21T07:49:15.201Z,96.0
2019-02-21T07:50:14.474Z,95.8
2019-02-21T07:51:14.515Z,95.8
2019-02-21T07:52:14.791Z,95.8
2019-02-21T07:53:15.057Z,95.8
2019-02-21T07:54:15.337Z,95.7
2019-02-21T07:55:14.805Z,95.7
2019-02-21T07:56:15.084Z,95.7
2019-02-21T07:57:14.349Z,95.7
2019-02-21T07:58:14.620Z,95.7
2019-02-21T07:59:14.888Z,95.7
2019-02-21T08:00:15.166Z,95.8
2019-02-21T08:01:17.705Z,95.8
2019-02-21T08:02:14.990Z,95.8
2019-02-21T08:03:15.269Z,95.6
2019-02-21T08:04:14.531Z,95.5
2019-02-21T08:05:14.890Z,95.4
2019-02-21T08:06:15.156Z,95.2
2019-02-21T08:07:14.415Z,94.9
2019-02-21T08:08:14.681Z,94.7
2019-02-21T08:09:14.949Z,94.8
2019-02-21T08:10:15.245Z,94.7
2019-02-21T08:11:15.295Z,94.7
2019-02-21T08:12:14.571Z,94.2
2019-02-21T08:13:14.845Z,94.2
2019-02-21T08:14:16.370Z,94.2
2019-02-21T08:15:14.698Z,93.7
2019-02-21T08:16:14.973Z,93.7
2019-02-21T08:17:16.475Z,93.5
2019-02-21T08:18:14.750Z,93.3
2019-02-21T08:19:15.030Z,92.6
2019-02-21T08:20:15.312Z,92.1
2019-02-21T08:21:14.376Z,92.1
2019-02-21T08:22:14.648Z,92.0
2019-02-21T08:23:14.914Z,91.8
2019-02-21T08:24:15.197Z,91.8
2019-02-21T08:25:14.461Z,91.8
2019-02-21T08:26:14.741Z,91.8
2019-02-21T08:27:15.003Z,92.1
2019-02-21T08:28:15.266Z,92.1
2019-02-21T08:29:14.526Z,92.2
2019-02-21T08:30:14.823Z,92.0
2019-02-21T08:31:14.848Z,91.8
2019-02-21T08:32:15.124Z,91.7
2019-02-21T08:33:14.384Z,91.6
2019-02-21T08:34:14.675Z,91.5
2019-02-21T08:35:14.941Z,91.2
2019-02-21T08:36:15.198Z,90.9
2019-02-21T08:37:14.468Z,91.1
2019-02-21T08:38:14.755Z,91.0
2019-02-21T08:39:15.070Z,90.8
2019-02-21T08:40:15.364Z,91.2
2019-02-21T08:41:14.888Z,91.0
2019-02-21T08:42:15.164Z,89.5
2019-02-21T08:43:14.437Z,88.5
2019-02-21T08:44:14.703Z,88.4
2019-02-21T08:45:17.978Z,89.5
2019-02-21T08:46:18.413Z,89.2
2019-02-21T08:47:14.733Z,89.3
2019-02-21T08:48:14.994Z,88.3
2019-02-21T08:49:15.264Z,87.2
2019-02-21T08:50:14.538Z,86.2
2019-02-21T08:51:14.576Z,85.8
2019-02-21T08:52:14.840Z,85.0
2019-02-21T08:53:15.107Z,83.9
2019-02-21T08:54:14.395Z,84.0
2019-02-21T08:55:14.682Z,84.6
2019-02-21T08:56:14.949Z,83.7
2019-02-21T08:57:15.213Z,83.0
2019-02-21T08:58:14.479Z,81.9
2019-02-21T08:59:14.741Z,81.9
2019-02-21T09:00:15.022Z,80.8
2019-02-21T09:01:15.063Z,80.5
2019-02-21T09:02:15.328Z,80.0
2019-02-21T09:03:14.599Z,80.2
2019-02-21T09:04:27.825Z,80.7
2019-02-21T09:05:15.250Z,80.9
2019-02-21T09:06:14.525Z,80.0
2019-02-21T09:07:14.795Z,80.4
2019-02-21T09:08:16.986Z,81.9
2019-02-21T09:09:15.274Z,83.0
2019-02-21T09:10:14.554Z,83.2
2019-02-21T09:11:14.593Z,82.7
2019-02-21T09:12:14.876Z,81.8
2019-02-21T09:13:15.145Z,81.8
2019-02-21T09:14:14.407Z,81.2
2019-02-21T09:15:14.674Z,79.2
2019-02-21T09:16:17.967Z,78.5
2019-02-21T09:17:15.263Z,78.0
2019-02-21T09:18:14.531Z,77.2
2019-02-21T09:19:14.813Z,76.9
2019-02-21T09:20:15.091Z,76.5
2019-02-21T09:21:15.158Z,76.3
2019-02-21T09:22:14.429Z,76.3
2019-02-21T09:23:16.026Z,76.2
2019-02-21T09:24:38.010Z,75.8
2019-02-21T09:25:14.410Z,76.0
2019-02-21T09:26:14.683Z,75.8
2019-02-21T09:27:14.957Z,75.3
2019-02-21T09:28:16.010Z,74.8
2019-02-21T09:29:15.287Z,74.3
2019-02-21T09:30:14.575Z,73.9
2019-02-21T09:31:14.643Z,74.1
2019-02-21T09:32:14.911Z,74.7
2019-02-21T09:33:21.185Z,74.3
2019-02-21T09:34:21.627Z,74.3
2019-02-21T09:35:14.923Z,73.6
2019-02-21T09:36:15.185Z,73.0
2019-02-21T09:37:14.466Z,72.6
2019-02-21T09:38:14.735Z,71.8
2019-02-21T09:39:16.195Z,71.8
2019-02-21T09:40:14.503Z,71.7
2019-02-21T09:41:14.544Z,71.5
2019-02-21T09:42:14.801Z,71.2
2019-02-21T09:43:15.061Z,71.0
2019-02-21T09:44:15.329Z,72.2
2019-02-21T09:45:15.096Z,73.1
2019-02-21T09:46:14.356Z,73.8
2019-02-21T09:47:14.616Z,74.0
2019-02-21T09:48:14.882Z,74.9
2019-02-21T09:49:15.164Z,74.8
2019-02-21T09:50:14.450Z,75.1
2019-02-21T09:51:14.460Z,75.3
2019-02-21T09:52:14.731Z,74.2
2019-02-21T09:53:14.991Z,74.2
2019-02-21T09:54:15.265Z,74.8
2019-02-21T09:55:14.552Z,75.0
2019-02-21T09:56:14.897Z,75.8
2019-02-21T09:57:15.155Z,75.9
2019-02-21T09:58:14.431Z,76.3
2019-02-21T09:59:14.693Z,76.3
2019-02-21T10:00:15.028Z,75.5
2019-02-21T10:01:15.024Z,74.8
2019-02-21T10:02:15.304Z,73.4
2019-02-21T10:03:14.582Z,75.4
2019-02-21T10:04:14.850Z,75.7
2019-02-21T10:05:15.152Z,75.7
2019-02-21T10:06:14.423Z,75.5
2019-02-21T10:07:14.694Z,76.0
2019-02-21T10:08:14.962Z,75.5
2019-02-21T10:09:15.246Z,75.7
2019-02-21T10:10:14.513Z,75.7
2019-02-21T10:11:14.560Z,74.9
2019-02-21T10:12:14.824Z,75.2
2019-02-21T10:13:15.111Z,75.2
2019-02-21T10:14:14.376Z,75.6
2019-02-21T10:15:14.666Z,75.3
2019-02-21T10:16:14.935Z,74.6
2019-02-21T10:17:15.210Z,73.9
2019-02-21T10:18:14.477Z,73.5
2019-02-21T10:19:14.739Z,74.8
2019-02-21T10:20:15.008Z,75.5
2019-02-21T10:21:15.066Z,75.0
2019-02-21T10:22:15.336Z,74.8
2019-02-21T10:23:14.607Z,74.4
2019-02-21T10:24:14.878Z,73.5
2019-02-21T10:25:15.238Z,73.5
2019-02-21T10:26:14.501Z,73.6
2019-02-21T10:27:14.755Z,73.8
2019-02-21T10:28:15.031Z,73.5
2019-02-21T10:29:15.298Z,73.3
2019-02-21T10:30:14.573Z,73.6
2019-02-21T10:31:14.644Z,73.1
2019-02-21T10:32:14.907Z,73.8
2019-02-21T10:33:15.171Z,74.2
2019-02-21T10:34:14.445Z,73.8
2019-02-21T10:35:14.714Z,73.8
2019-02-21T10:36:14.984Z,72.7
2019-02-21T10:37:15.245Z,72.3
2019-02-21T10:38:14.513Z,73.2
2019-02-21T10:39:14.785Z,73.6
2019-02-21T10:40:15.066Z,74.2
2019-02-21T10:41:15.100Z,73.5
2019-02-21T10:42:14.448Z,72.9
2019-02-21T10:43:14.733Z,73.1
2019-02-21T10:44:14.998Z,73.8
2019-02-21T10:45:15.294Z,72.9
2019-02-21T10:46:14.652Z,73.3
2019-02-21T10:47:14.915Z,72.9
2019-02-21T10:48:15.168Z,72.4
2019-02-21T10:49:14.437Z,72.7
2019-02-21T10:50:14.712Z,72.1
2019-02-21T10:51:14.750Z,71.7
2019-02-21T10:52:15.010Z,71.8
2019-02-21T10:53:15.270Z,73.0
2019-02-21T10:54:14.530Z,72.1
2019-02-21T10:55:14.824Z,72.0
2019-02-21T10:56:15.080Z,71.7
2019-02-21T10:57:14.346Z,71.9
2019-02-21T10:58:14.620Z,72.0
2019-02-21T10:59:14.895Z,72.2
2019-02-21T11:00:15.176Z,72.3
2019-02-21T11:01:15.253Z,72.4
2019-02-21T11:02:14.533Z,72.2
2019-02-21T11:03:14.789Z,71.5
2019-02-21T11:04:15.053Z,70.2
2019-02-21T11:05:15.312Z,71.5
2019-02-21T11:06:14.588Z,71.2
2019-02-21T11:07:14.844Z,71.3
2019-02-21T11:08:15.114Z,72.2
2019-02-21T11:09:14.385Z,71.9
2019-02-21T11:10:14.684Z,72.0
2019-02-21T11:11:17.377Z,72.0
2019-02-21T11:12:14.653Z,71.0
2019-02-21T11:13:14.917Z,71.4
2019-02-21T11:14:15.184Z,72.1
2019-02-21T11:15:14.446Z,72.3
2019-02-21T11:16:14.708Z,72.3
2019-02-21T11:17:14.974Z,72.4
2019-02-21T11:18:15.249Z,72.2
2019-02-21T11:19:14.523Z,72.0
2019-02-21T11:20:14.790Z,71.5
2019-02-21T11:21:14.831Z,71.9
2019-02-21T11:22:15.108Z,71.4
2019-02-21T11:23:14.383Z,71.2
2019-02-21T11:24:14.656Z,70.8
2019-02-21T11:25:14.924Z,70.5
2019-02-21T11:26:15.313Z,71.0
2019-02-21T11:27:14.579Z,71.4
2019-02-21T11:28:14.847Z,71.5
2019-02-21T11:29:15.117Z,72.0
2019-02-21T11:30:14.409Z,71.8
2019-02-21T11:31:14.451Z,71.2
2019-02-21T11:32:14.728Z,71.5
2019-02-21T11:33:15.004Z,71.0
2019-02-21T11:34:15.274Z,71.0
2019-02-21T11:35:14.547Z,71.2
2019-02-21T11:36:14.823Z,71.5
2019-02-21T11:37:15.092Z,70.5
2019-02-21T11:38:14.358Z,70.2
2019-02-21T11:39:14.716Z,70.5
2019-02-21T11:40:15.002Z,71.0
2019-02-21T11:41:15.056Z,69.8
2019-02-21T11:42:15.333Z,69.7
2019-02-21T11:43:14.605Z,69.5
2019-02-21T11:44:14.878Z,69.2
2019-02-21T11:45:15.141Z,69.5
2019-02-21T11:46:14.403Z,69.5
2019-02-21T11:47:14.687Z,69.5
2019-02-21T11:48:14.963Z,69.0
2019-02-21T11:49:15.222Z,69.2
2019-02-21T11:50:14.495Z,69.7
2019-02-21T11:51:14.565Z,69.9
2019-02-21T11:52:14.838Z,70.0
2019-02-21T11:53:15.116Z,69.7
2019-02-21T11:54:26.680Z,69.2
2019-02-21T11:55:14.389Z,69.2
2019-02-21T11:56:15.957Z,68.7
2019-02-21T11:57:15.237Z,69.0
2019-02-21T11:58:14.586Z,69.3
2019-02-21T11:59:16.300Z,70.2
2019-02-21T12:00:14.573Z,69.6
2019-02-21T12:01:14.637Z,69.5
2019-02-21T12:02:14.905Z,70.0
2019-02-21T12:03:15.166Z,70.4
2019-02-21T12:04:14.443Z,70.5
2019-02-21T12:05:17.993Z,69.6
2019-02-21T12:06:15.242Z,70.1
2019-02-21T12:07:14.508Z,70.4
2019-02-21T12:08:14.775Z,70.5
2019-02-21T12:09:15.037Z,70.3
2019-02-21T12:10:15.400Z,69.7
2019-02-21T12:11:14.358Z,70.4
2019-02-21T12:12:14.642Z,69.9
2019-02-21T12:13:14.896Z,69.6
2019-02-21T12:14:15.157Z,70.1
2019-02-21T12:15:14.416Z,69.9
2019-02-21T12:16:14.679Z,69.2
2019-02-21T12:17:14.937Z,68.7
2019-02-21T12:18:15.204Z,68.4
2019-02-21T12:19:14.472Z,68.2
2019-02-21T12:20:14.770Z,68.4
2019-02-21T12:21:14.777Z,68.2
2019-02-21T12:22:15.059Z,67.6
2019-02-21T12:23:17.907Z,67.2
2019-02-21T12:24:15.191Z,67.8
2019-02-21T12:25:14.471Z,68.3
2019-02-21T12:26:14.739Z,69.0
2019-02-21T12:27:15.009Z,68.9
2019-02-21T12:28:15.280Z,68.3
2019-02-21T12:29:14.548Z,68.6
2019-02-21T12:30:14.818Z,68.7
2019-02-21T12:31:14.869Z,68.7
2019-02-21T12:32:15.134Z,68.1
2019-02-21T12:33:14.441Z,68.2
2019-02-21T12:34:14.718Z,68.0
2019-02-21T12:35:14.993Z,68.2
2019-02-21T12:36:15.263Z,67.5
2019-02-21T12:37:14.557Z,67.2
2019-02-21T12:38:14.828Z,67.2
2019-02-21T12:39:15.099Z,66.8
2019-02-21T12:40:14.366Z,67.1
2019-02-21T12:41:14.430Z,67.8
2019-02-21T12:42:14.695Z,67.1
2019-02-21T12:43:14.956Z,66.8
2019-02-21T12:44:15.219Z,66.2
2019-02-21T12:45:14.494Z,66.3
2019-02-21T12:46:14.769Z,66.1
2019-02-21T12:47:15.036Z,66.2
2019-02-21T12:48:15.300Z,66.2
2019-02-21T12:49:14.561Z,66.1
2019-02-21T12:50:14.839Z,66.1
2019-02-21T12:51:14.874Z,66.2
2019-02-21T12:52:15.144Z,66.7
2019-02-21T12:53:14.435Z,66.3
2019-02-21T12:54:14.699Z,66.4
2019-02-21T12:55:29.514Z,67.0
2019-02-21T12:56:14.744Z,66.8
2019-02-21T12:57:15.008Z,67.0
2019-02-21T12:58:15.275Z,66.8
2019-02-21T12:59:14.545Z,67.0
2019-02-21T13:00:14.837Z,66.7
2019-02-21T13:01:14.885Z,67.0
2019-02-21T13:02:15.141Z,67.0
2019-02-21T13:03:14.412Z,67.3
2019-02-21T13:04:14.689Z,67.1
2019-02-21T13:05:14.958Z,67.4
2019-02-21T13:06:15.226Z,67.5
2019-02-21T13:07:14.479Z,67.3
2019-02-21T13:08:14.749Z,67.3
2019-02-21T13:09:15.015Z,67.4
2019-02-21T13:10:15.304Z,67.7
2019-02-21T13:11:15.319Z,67.7
2019-02-21T13:12:14.643Z,67.8
2019-02-21T13:13:14.917Z,68.2
2019-02-21T13:14:15.190Z,68.1
2019-02-21T13:15:14.478Z,68.2
2019-02-21T13:16:14.746Z,68.3
2019-02-21T13:17:15.013Z,68.2
2019-02-21T13:18:16.379Z,68.2